Time;durP1;ratioP1;P1;durP2;ratioP2;P2;SDS_P1;SDS_P2;PMS_P1;PMS_P2;Temp;Humidity;BMP_temperature;BMP_pressure;BME280_temperature;BME280_humidity;BME280_pressure;Samples;Min_cycle;Max_cycle;Signal;HPM_P1;HPM_P2
2023/01/07 00:01:00;;;;;;;15.90;1.50;;;11.40;99.90;;;;;;5013045;28;20033;-64
2023/01/07 00:03:27;;;;;;;6.28;0.52;;;11.40;99.90;;;;;;5009007;28;20034;-65
2023/01/07 00:06:16;;;;;;;0.95;0.95;;;11.40;99.90;;;;;;5009363;28;20026;-64
2023/01/07 00:08:44;;;;;;;4.45;2.38;;;11.40;99.90;;;;;;5009029;28;20030;-64
2023/01/07 00:11:22;;;;;;;3.15;2.00;;;11.40;99.90;;;;;;5011432;28;20032;-64
2023/01/07 00:13:49;;;;;;;2.25;1.02;;;11.40;99.90;;;;;;5007568;28;20026;-64
2023/01/07 00:16:17;;;;;;;13.35;2.05;;;11.40;99.90;;;;;;5010471;28;20038;-65
2023/01/07 00:18:44;;;;;;;9.15;3.83;;;11.40;99.90;;;;;;5011265;28;20105;-64
2023/01/07 00:21:13;;;;;;;0.47;0.47;;;11.40;99.90;;;;;;5007397;28;20038;-64
2023/01/07 00:23:40;;;;;;;1.52;1.40;;;11.30;99.90;;;;;;5008150;28;20180;-68
2023/01/07 00:26:15;;;;;;;0.32;0.32;;;11.30;99.90;;;;;;5010554;28;20030;-65
2023/01/07 00:28:42;;;;;;;3.63;1.30;;;11.30;99.90;;;;;;5016733;28;20116;-65
2023/01/07 00:31:17;;;;;;;2.15;1.60;;;11.30;99.90;;;;;;5020179;28;20434;-64
2023/01/07 00:33:52;;;;;;;0.10;0.10;;;11.30;99.90;;;;;;5019166;28;20024;-65
2023/01/07 00:36:19;;;;;;;0.30;0.30;;;11.40;99.90;;;;;;5010082;28;20034;-65
2023/01/07 00:38:45;;;;;;;1.67;1.25;;;11.40;99.90;;;;;;5011705;28;20100;-64
2023/01/07 00:41:11;;;;;;;1.15;1.05;;;11.40;99.90;;;;;;5010491;28;20385;-64
2023/01/07 00:43:37;;;;;;;3.15;1.75;;;11.30;99.90;;;;;;5010170;28;20122;-64
2023/01/07 00:46:03;;;;;;;2.33;1.23;;;11.30;99.90;;;;;;5010748;28;20021;-64
2023/01/07 00:48:29;;;;;;;0.80;0.80;;;11.30;99.90;;;;;;5008904;28;20022;-64
2023/01/07 00:50:55;;;;;;;0.73;0.52;;;11.20;99.90;;;;;;5009906;28;20084;-64
2023/01/07 00:53:21;;;;;;;1.77;1.20;;;11.20;99.90;;;;;;5008575;28;20026;-64
2023/01/07 00:55:49;;;;;;;0.10;0.10;;;11.20;99.90;;;;;;5009968;28;20026;-65
2023/01/07 00:58:19;;;;;;;1.15;1.05;;;11.20;99.90;;;;;;5010147;28;20052;-64
2023/01/07 01:00:45;;;;;;;5.93;1.17;;;11.20;99.90;;;;;;4976215;28;20018;-64
2023/01/07 01:03:12;;;;;;;0.70;0.70;;;11.20;99.90;;;;;;5011924;28;20018;-64
2023/01/07 01:05:38;;;;;;;1.98;1.45;;;11.20;99.90;;;;;;5009799;28;20018;-64
2023/01/07 01:08:04;;;;;;;1.08;1.02;;;11.20;99.90;;;;;;5008256;28;20022;-64
2023/01/07 01:10:30;;;;;;;1.15;1.08;;;11.20;99.90;;;;;;5008586;28;20041;-64
2023/01/07 01:12:56;;;;;;;0.60;0.43;;;11.10;99.90;;;;;;5011031;28;20014;-64
2023/01/07 01:15:22;;;;;;;0.35;0.35;;;11.10;99.90;;;;;;5001719;28;20153;-64
2023/01/07 01:17:50;;;;;;;3.42;1.30;;;11.10;99.90;;;;;;5007695;28;20141;-64
2023/01/07 01:20:16;;;;;;;0.80;0.70;;;11.00;99.90;;;;;;5008243;28;20426;-64
2023/01/07 01:22:42;;;;;;;19.27;2.92;;;11.00;99.90;;;;;;5012213;28;20509;-64
2023/01/07 01:25:09;;;;;;;7.80;2.00;;;10.90;99.90;;;;;;5010991;28;20028;-64
2023/01/07 01:27:35;;;;;;;3.97;1.73;;;10.90;99.90;;;;;;5013580;28;20018;-64
2023/01/07 01:30:03;;;;;;;1.23;1.00;;;10.90;99.90;;;;;;5011810;28;20120;-64
2023/01/07 01:32:30;;;;;;;1.15;1.05;;;11.00;99.90;;;;;;5010892;28;20043;-64
2023/01/07 01:34:57;;;;;;;2.05;1.38;;;11.00;99.90;;;;;;5012719;28;20846;-64
2023/01/07 01:37:23;;;;;;;1.40;1.08;;;11.00;99.90;;;;;;5012817;28;20359;-64
2023/01/07 01:39:49;;;;;;;2.95;1.65;;;11.00;99.90;;;;;;5014387;28;20026;-64
2023/01/07 01:42:18;;;;;;;2.65;0.63;;;11.10;99.90;;;;;;5013222;28;20367;-64
2023/01/07 01:44:56;;;;;;;13.73;1.30;;;11.10;99.90;;;;;;5011377;28;20026;-64
2023/01/07 01:48:01;;;;;;;1.40;1.10;;;11.10;99.90;;;;;;5005078;28;20117;-64
2023/01/07 01:50:49;;;;;;;0.47;0.47;;;11.10;99.90;;;;;;5003114;28;20034;-64
2023/01/07 01:53:23;;;;;;;2.17;1.45;;;11.10;99.90;;;;;;5013700;28;20104;-64
2023/01/07 01:55:57;;;;;;;2.72;0.70;;;11.10;99.90;;;;;;5013782;28;21643;-64
2023/01/07 01:58:39;;;;;;;2.15;0.88;;;11.10;99.90;;;;;;5013637;28;20050;-64
2023/01/07 02:01:05;;;;;;;2.05;0.90;;;11.20;99.90;;;;;;5013332;28;20026;-64
2023/01/07 02:03:34;;;;;;;0.70;0.63;;;11.30;99.90;;;;;;5011918;28;20095;-64
2023/01/07 02:06:01;;;;;;;1.35;0.95;;;11.20;99.90;;;;;;4996338;28;20546;-69
2023/01/07 02:08:27;;;;;;;2.05;1.08;;;11.20;99.90;;;;;;5013130;28;20036;-64
2023/01/07 02:11:05;;;;;;;6.00;1.73;;;11.10;99.90;;;;;;5013174;28;20021;-64
2023/01/07 02:13:53;;;;;;;2.35;1.27;;;11.00;99.90;;;;;;5013574;28;20033;-64
2023/01/07 02:16:34;;;;;;;5.05;1.83;;;11.10;99.90;;;;;;5012862;28;20518;-64
2023/01/07 02:19:29;;;;;;;2.92;1.52;;;11.10;99.90;;;;;;5014983;28;20100;-64
2023/01/07 02:22:26;;;;;;;1.80;1.00;;;11.10;99.90;;;;;;5006995;28;20046;-64
2023/01/07 02:25:29;;;;;;;3.13;1.15;;;11.10;99.90;;;;;;5011286;28;20108;-64
2023/01/07 02:28:09;;;;;;;1.10;0.90;;;11.20;99.90;;;;;;5011864;28;20029;-64
2023/01/07 02:31:12;;;;;;;1.95;1.02;;;11.20;99.90;;;;;;5010777;28;20045;-64
2023/01/07 02:33:57;;;;;;;1.90;0.95;;;11.20;99.90;;;;;;5012390;28;20473;-64
2023/01/07 02:36:43;;;;;;;3.25;1.77;;;11.20;99.90;;;;;;5020391;28;20022;-64
2023/01/07 02:39:19;;;;;;;4.75;2.67;;;11.20;99.90;;;;;;5009597;28;20022;-64
2023/01/07 02:42:03;;;;;;;1.10;1.00;;;11.20;99.90;;;;;;5011843;28;20033;-64
2023/01/07 02:45:00;;;;;;;2.30;1.15;;;11.20;99.90;;;;;;5011220;28;20021;-64
2023/01/07 02:47:36;;;;;;;2.60;1.42;;;11.20;99.90;;;;;;5012394;28;20490;-65
2023/01/07 02:50:04;;;;;;;1.38;1.05;;;11.30;99.90;;;;;;5013201;28;20487;-64
2023/01/07 02:52:33;;;;;;;2.22;1.48;;;11.20;99.90;;;;;;5011289;28;20076;-69
2023/01/07 02:55:38;;;;;;;8.50;2.75;;;11.10;99.90;;;;;;5011736;28;20501;-65
2023/01/07 02:58:32;;;;;;;0.82;0.82;;;11.10;99.90;;;;;;4951057;28;20026;-64
2023/01/07 03:01:39;;;;;;;1.13;1.02;;;11.10;99.90;;;;;;5026073;28;20034;-64
2023/01/07 03:04:24;;;;;;;1.60;1.48;;;11.10;99.90;;;;;;4976195;28;20038;-64
2023/01/07 03:07:20;;;;;;;1.25;1.15;;;11.10;99.90;;;;;;4993099;28;20387;-65
2023/01/07 03:09:49;;;;;;;0.80;0.80;;;11.00;99.90;;;;;;5011466;28;20479;-64
2023/01/07 03:12:41;;;;;;;1.02;0.95;;;11.00;99.90;;;;;;5011543;28;20029;-64
2023/01/07 03:15:43;;;;;;;0.75;0.73;;;11.00;99.90;;;;;;4990294;28;20022;-64
2023/01/07 03:18:18;;;;;;;0.98;0.65;;;11.00;99.90;;;;;;5007908;28;20053;-64
2023/01/07 03:20:48;;;;;;;0.22;0.22;;;11.00;99.90;;;;;;5010070;28;20088;-63
2023/01/07 03:23:20;;;;;;;1.00;0.50;;;11.00;99.90;;;;;;5007175;28;20066;-65
2023/01/07 03:25:48;;;;;;;0.13;0.13;;;11.00;99.90;;;;;;5007537;28;20022;-64
2023/01/07 03:28:20;;;;;;;2.28;1.48;;;11.00;99.90;;;;;;5000943;28;20114;-65
2023/01/07 03:30:48;;;;;;;5.63;2.05;;;10.80;99.90;;;;;;4993363;28;20045;-67
2023/01/07 03:33:57;;;;;;;8.80;2.35;;;10.90;99.90;;;;;;4994574;28;20359;-64
2023/01/07 03:36:29;;;;;;;12.25;2.22;;;10.80;99.90;;;;;;4992400;28;20061;-65
2023/01/07 03:38:55;;;;;;;;;;;10.80;99.90;;;;;;4999109;28;20102;-65
2023/01/07 03:44:06;;;;;;;0.93;0.63;;;10.80;99.90;;;;;;5009866;28;20164;-65
2023/01/07 03:46:34;;;;;;;5.55;1.45;;;10.80;99.90;;;;;;4992016;28;20116;-70
2023/01/07 03:49:00;;;;;;;5.80;2.53;;;10.90;99.90;;;;;;5010127;28;20034;-64
2023/01/07 03:51:26;;;;;;;6.85;2.97;;;10.90;99.90;;;;;;4983108;28;20027;-65
2023/01/07 03:53:52;;;;;;;2.05;0.90;;;10.90;99.90;;;;;;4994887;28;20025;-64
2023/01/07 03:56:18;;;;;;;8.90;2.55;;;10.90;99.90;;;;;;4989676;28;20030;-65
2023/01/07 03:58:44;;;;;;;2.85;1.73;;;11.00;99.90;;;;;;5010486;28;20115;-64
2023/01/07 04:01:09;;;;;;;10.43;1.63;;;11.00;99.90;;;;;;5007802;28;20053;-65
2023/01/07 04:03:36;;;;;;;6.40;2.28;;;11.00;99.90;;;;;;5009745;28;20486;-64
2023/01/07 04:06:02;;;;;;;2.35;1.30;;;11.00;99.90;;;;;;5008905;28;20025;-67
2023/01/07 04:08:27;;;;;;;3.88;2.05;;;11.00;99.90;;;;;;5010207;28;20030;-65
2023/01/07 04:10:54;;;;;;;8.07;2.45;;;11.00;99.90;;;;;;5010796;28;20113;-64
2023/01/07 04:13:20;;;;;;;4.80;2.08;;;11.00;99.90;;;;;;5007174;28;20116;-68
2023/01/07 04:15:48;;;;;;;2.25;1.30;;;11.00;99.90;;;;;;5010097;28;20502;-63
2023/01/07 04:18:14;;;;;;;5.43;2.85;;;11.00;99.90;;;;;;5007066;28;20026;-64
2023/01/07 04:20:43;;;;;;;2.08;1.08;;;11.00;99.90;;;;;;5009243;28;20034;-67
2023/01/07 04:23:09;;;;;;;7.80;3.00;;;11.10;99.90;;;;;;5008747;28;20474;-65
2023/01/07 04:25:34;;;;;;;9.18;2.15;;;11.00;99.90;;;;;;5006516;28;20097;-69
2023/01/07 04:28:03;;;;;;;1.50;0.57;;;11.00;99.90;;;;;;5011179;28;20045;-65
2023/01/07 04:30:29;;;;;;;2.03;1.33;;;11.10;99.90;;;;;;5006522;28;20613;-64
2023/01/07 04:32:54;;;;;;;2.20;2.00;;;11.10;99.90;;;;;;5009876;28;20038;-64
2023/01/07 04:35:20;;;;;;;4.07;1.85;;;11.10;99.90;;;;;;5009374;28;20029;-63
2023/01/07 04:37:46;;;;;;;2.90;0.40;;;11.00;99.90;;;;;;4978453;28;20391;-63
2023/01/07 04:40:12;;;;;;;5.50;2.28;;;11.00;99.90;;;;;;5010538;28;20014;-65
2023/01/07 04:42:38;;;;;;;2.85;1.88;;;11.00;99.90;;;;;;5009296;28;20039;-63
2023/01/07 04:45:07;;;;;;;9.43;1.08;;;11.10;99.90;;;;;;5010136;28;20080;-64
2023/01/07 04:47:33;;;;;;;1.70;1.10;;;11.00;99.90;;;;;;5005033;28;20109;-64
2023/01/07 04:49:59;;;;;;;7.45;1.60;;;11.10;99.90;;;;;;5009559;28;20122;-63
2023/01/07 04:52:28;;;;;;;0.30;0.25;;;11.10;99.90;;;;;;5006959;28;20034;-64
2023/01/07 04:54:54;;;;;;;1.10;0.98;;;11.00;99.90;;;;;;4972126;28;20027;-64
2023/01/07 04:57:20;;;;;;;3.03;1.45;;;11.00;99.90;;;;;;5009100;28;20024;-63
2023/01/07 04:59:46;;;;;;;1.13;0.90;;;11.00;99.90;;;;;;5010547;28;20113;-63
2023/01/07 05:02:12;;;;;;;1.73;0.98;;;11.00;99.90;;;;;;5010172;28;20109;-63
2023/01/07 05:04:38;;;;;;;0.95;0.95;;;11.00;99.90;;;;;;5001542;28;20045;-64
2023/01/07 05:07:04;;;;;;;1.02;0.95;;;11.00;99.90;;;;;;5008174;28;20026;-63
2023/01/07 05:09:30;;;;;;;2.53;0.52;;;11.00;99.90;;;;;;4990435;28;20034;-64
2023/01/07 05:11:56;;;;;;;1.83;1.55;;;11.00;99.90;;;;;;5010095;28;20536;-64
2023/01/07 05:14:22;;;;;;;1.67;0.82;;;11.00;99.90;;;;;;5007874;28;20014;-63
2023/01/07 05:16:51;;;;;;;2.88;1.52;;;11.00;99.90;;;;;;5006538;28;20018;-64
2023/01/07 05:19:18;;;;;;;4.57;0.47;;;11.00;99.90;;;;;;5010188;28;20026;-63
2023/01/07 05:21:46;;;;;;;2.40;1.45;;;11.00;99.90;;;;;;5005012;28;20131;-63
2023/01/07 05:24:12;;;;;;;1.33;0.65;;;11.00;99.90;;;;;;5007674;28;20030;-63
2023/01/07 05:26:39;;;;;;;1.20;1.10;;;11.00;99.90;;;;;;5008381;28;20061;-64
2023/01/07 05:29:05;;;;;;;2.83;1.30;;;11.00;99.90;;;;;;5006260;28;20068;-64
2023/01/07 05:31:32;;;;;;;0.85;0.52;;;11.10;99.90;;;;;;5007908;28;20029;-65
2023/01/07 05:33:58;;;;;;;2.08;1.05;;;11.10;99.90;;;;;;5007189;28;20030;-64
2023/01/07 05:36:24;;;;;;;1.52;0.95;;;11.00;99.90;;;;;;5010728;28;20041;-64
2023/01/07 05:38:50;;;;;;;5.00;1.55;;;11.00;99.90;;;;;;5009342;28;20390;-64
2023/01/07 05:41:16;;;;;;;1.02;0.65;;;11.00;99.90;;;;;;4993072;28;20015;-64
2023/01/07 05:43:42;;;;;;;2.30;1.00;;;11.00;99.90;;;;;;4991698;28;20030;-64
2023/01/07 05:46:08;;;;;;;2.10;1.02;;;11.00;99.90;;;;;;4992985;28;20025;-64
2023/01/07 05:48:33;;;;;;;0.35;0.25;;;11.00;99.90;;;;;;4993134;28;20068;-64
2023/01/07 05:50:59;;;;;;;0.60;0.60;;;10.90;99.90;;;;;;4992821;28;20081;-66
2023/01/07 05:53:25;;;;;;;3.17;1.85;;;11.00;99.90;;;;;;4993377;28;20030;-64
2023/01/07 05:55:58;;;;;;;3.22;1.02;;;11.00;99.90;;;;;;4993788;28;20061;-65
2023/01/07 05:58:25;;;;;;;1.30;0.82;;;11.00;99.90;;;;;;4993853;28;20036;-64
2023/01/07 06:00:51;;;;;;;2.08;0.90;;;11.10;99.90;;;;;;4994268;28;20023;-64
2023/01/07 06:03:17;;;;;;;0.68;0.50;;;11.10;99.90;;;;;;4994560;28;20106;-64
2023/01/07 06:05:43;;;;;;;1.48;1.17;;;11.10;99.90;;;;;;4995253;28;20069;-65
2023/01/07 06:08:09;;;;;;;0.77;0.70;;;11.10;99.90;;;;;;4998173;28;20378;-65
2023/01/07 06:10:35;;;;;;;0.55;0.40;;;11.10;99.90;;;;;;4998759;28;20076;-65
2023/01/07 06:13:01;;;;;;;1.85;0.40;;;11.10;99.90;;;;;;4998377;28;20027;-64
2023/01/07 06:15:27;;;;;;;0.38;0.28;;;11.10;99.90;;;;;;5009578;28;20045;-64
2023/01/07 06:17:53;;;;;;;1.90;0.88;;;11.20;99.90;;;;;;4997085;28;20513;-64
2023/01/07 06:20:19;;;;;;;2.22;0.68;;;11.10;99.90;;;;;;4998755;28;20058;-64
2023/01/07 06:22:44;;;;;;;1.27;0.75;;;11.10;99.90;;;;;;4998695;28;20403;-65
2023/01/07 06:25:16;;;;;;;4.88;0.55;;;11.10;99.90;;;;;;4998097;28;20117;-65
2023/01/07 06:27:42;;;;;;;;;;;11.10;99.90;;;;;;4998546;28;20113;-63
2023/01/07 06:30:09;;;;;;;0.52;0.52;;;11.10;99.90;;;;;;4997820;28;20019;-63
2023/01/07 06:32:42;;;;;;;1.40;0.40;;;11.10;99.90;;;;;;4997548;28;20023;-65
2023/01/07 06:35:09;;;;;;;2.95;0.40;;;11.20;99.90;;;;;;4997958;28;20039;-64
2023/01/07 06:37:36;;;;;;;0.20;0.20;;;11.20;99.90;;;;;;4997273;28;20046;-64
2023/01/07 06:40:02;;;;;;;0.55;0.32;;;11.20;99.90;;;;;;4998163;28;20038;-64
2023/01/07 06:42:28;;;;;;;0.00;0.00;;;11.20;99.90;;;;;;4998428;28;20038;-64
2023/01/07 06:44:53;;;;;;;1.48;0.47;;;11.20;99.90;;;;;;4996958;28;20038;-65
2023/01/07 06:47:19;;;;;;;0.32;0.32;;;11.20;99.90;;;;;;4997029;28;20054;-64
2023/01/07 06:49:45;;;;;;;1.17;0.45;;;11.10;99.90;;;;;;4995533;28;20060;-64
2023/01/07 06:52:11;;;;;;;0.13;0.13;;;11.10;99.90;;;;;;4998005;28;20034;-64
2023/01/07 06:54:37;;;;;;;0.10;0.10;;;11.10;99.90;;;;;;4998773;28;20109;-64
2023/01/07 06:57:02;;;;;;;0.63;0.50;;;11.10;99.90;;;;;;4998480;28;20026;-64
2023/01/07 06:59:28;;;;;;;0.52;0.52;;;11.10;99.90;;;;;;4999252;28;20034;-64
2023/01/07 07:01:54;;;;;;;4.13;0.65;;;11.00;99.90;;;;;;4998925;28;20101;-64
2023/01/07 07:04:20;;;;;;;0.17;0.17;;;11.10;99.90;;;;;;4998527;28;20475;-67
2023/01/07 07:06:46;;;;;;;0.43;0.43;;;11.10;99.90;;;;;;4999214;28;20034;-64
2023/01/07 07:09:11;;;;;;;0.30;0.30;;;11.00;99.90;;;;;;4998455;28;20026;-64
2023/01/07 07:11:38;;;;;;;0.22;0.22;;;11.00;99.90;;;;;;4998966;28;20382;-64
2023/01/07 07:14:04;;;;;;;1.25;0.80;;;11.00;99.90;;;;;;4998838;28;20057;-66
2023/01/07 07:16:30;;;;;;;1.75;0.55;;;11.10;99.90;;;;;;5010929;28;20030;-65
2023/01/07 07:18:56;;;;;;;11.20;0.70;;;11.10;99.90;;;;;;5014037;28;20052;-64
2023/01/07 07:21:21;;;;;;;1.50;0.60;;;11.10;99.90;;;;;;5012214;28;20455;-64
2023/01/07 07:23:47;;;;;;;0.22;0.22;;;11.10;99.90;;;;;;5012758;28;20117;-65
2023/01/07 07:26:13;;;;;;;0.63;0.43;;;11.20;99.90;;;;;;5013995;28;20463;-65
2023/01/07 07:28:41;;;;;;;1.35;0.45;;;11.20;99.90;;;;;;5010382;28;20137;-65
2023/01/07 07:31:08;;;;;;;0.10;0.10;;;11.20;99.90;;;;;;5007097;28;20029;-66
2023/01/07 07:33:34;;;;;;;0.55;0.20;;;11.30;99.90;;;;;;5012822;28;20116;-64
2023/01/07 07:36:01;;;;;;;0.30;0.30;;;11.20;99.90;;;;;;5013125;28;20120;-64
2023/01/07 07:38:27;;;;;;;0.30;0.30;;;11.20;99.90;;;;;;5015788;28;20075;-63
2023/01/07 07:40:53;;;;;;;0.73;0.52;;;11.20;99.90;;;;;;5019045;28;20022;-65
2023/01/07 07:43:19;;;;;;;0.52;0.47;;;11.10;99.90;;;;;;5016937;28;20026;-64
2023/01/07 07:45:45;;;;;;;0.50;0.50;;;11.20;99.90;;;;;;5008759;28;20044;-64
2023/01/07 07:48:15;;;;;;;0.20;0.20;;;11.10;99.90;;;;;;5013123;28;20033;-63
2023/01/07 07:50:41;;;;;;;0.20;0.20;;;11.20;99.90;;;;;;5012390;28;20042;-69
2023/01/07 07:53:09;;;;;;;0.75;0.65;;;11.20;99.90;;;;;;5013481;28;20022;-67
2023/01/07 07:55:38;;;;;;;1.17;0.40;;;11.20;99.90;;;;;;5014370;28;20029;-64
2023/01/07 07:58:05;;;;;;;0.73;0.50;;;11.10;99.90;;;;;;5011118;28;20046;-68
2023/01/07 08:00:31;;;;;;;0.68;0.68;;;11.10;99.90;;;;;;5012836;28;20025;-67
2023/01/07 08:02:59;;;;;;;1.00;0.60;;;11.20;99.90;;;;;;5010279;28;20034;-67
2023/01/07 08:05:26;;;;;;;4.03;0.40;;;11.20;99.90;;;;;;5012489;28;20113;-67
2023/01/07 08:07:53;;;;;;;0.57;0.57;;;11.20;99.90;;;;;;5010346;28;20108;-64
2023/01/07 08:10:19;;;;;;;1.45;0.77;;;11.20;99.90;;;;;;5012563;28;20091;-64
2023/01/07 08:12:45;;;;;;;0.15;0.15;;;11.30;99.90;;;;;;4999822;28;20023;-64
2023/01/07 08:15:11;;;;;;;0.43;0.32;;;11.20;99.90;;;;;;5011747;28;20114;-64
2023/01/07 08:17:37;;;;;;;1.98;0.60;;;11.20;99.90;;;;;;5011126;28;20030;-63
2023/01/07 08:20:04;;;;;;;1.60;0.65;;;11.30;99.90;;;;;;5010982;28;20040;-64
2023/01/07 08:22:30;;;;;;;0.38;0.38;;;11.30;99.90;;;;;;5009347;28;20398;-63
2023/01/07 08:24:56;;;;;;;0.60;0.45;;;11.30;99.90;;;;;;5006447;28;20022;-64
2023/01/07 08:27:22;;;;;;;0.05;0.05;;;11.30;99.90;;;;;;5010177;28;20025;-65
2023/01/07 08:29:47;;;;;;;0.00;0.00;;;11.30;99.90;;;;;;5009773;28;20049;-64
2023/01/07 08:32:13;;;;;;;0.90;0.30;;;11.30;99.90;;;;;;5011548;28;20021;-63
2023/01/07 08:34:39;;;;;;;0.40;0.40;;;11.30;99.90;;;;;;5009575;28;20034;-64
2023/01/07 08:37:05;;;;;;;0.25;0.25;;;11.30;99.90;;;;;;5011624;28;20022;-63
2023/01/07 08:39:30;;;;;;;0.55;0.50;;;11.30;99.90;;;;;;5008849;28;20033;-64
2023/01/07 08:41:56;;;;;;;0.20;0.20;;;11.30;99.90;;;;;;5010239;28;20026;-63
2023/01/07 08:44:22;;;;;;;0.30;0.30;;;11.30;99.90;;;;;;5007478;28;20029;-64
2023/01/07 08:46:48;;;;;;;0.10;0.10;;;11.40;99.90;;;;;;5007259;28;20030;-64
2023/01/07 08:49:13;;;;;;;0.65;0.60;;;11.40;99.90;;;;;;5010177;28;20383;-65
2023/01/07 08:51:39;;;;;;;0.25;0.25;;;11.50;99.90;;;;;;5010811;28;20038;-70
2023/01/07 08:54:05;;;;;;;0.17;0.17;;;11.40;99.90;;;;;;5011633;28;20021;-63
2023/01/07 08:56:32;;;;;;;2.15;0.28;;;11.40;99.90;;;;;;5011219;28;20065;-64
2023/01/07 08:58:58;;;;;;;0.73;0.50;;;11.40;99.90;;;;;;5009442;28;20406;-63
2023/01/07 09:01:24;;;;;;;0.22;0.22;;;11.40;99.90;;;;;;5008263;28;20030;-64
2023/01/07 09:03:50;;;;;;;0.55;0.30;;;11.50;99.90;;;;;;5011366;28;20026;-63
2023/01/07 09:06:16;;;;;;;2.92;0.40;;;11.40;99.90;;;;;;5008655;28;20022;-64
2023/01/07 09:08:41;;;;;;;1.75;0.47;;;11.40;99.90;;;;;;5010133;28;20029;-63
2023/01/07 09:11:07;;;;;;;1.08;0.65;;;11.40;99.90;;;;;;5011532;28;20045;-63
2023/01/07 09:13:33;;;;;;;0.85;0.52;;;11.40;99.90;;;;;;5009403;28;20022;-63
2023/01/07 09:15:59;;;;;;;0.68;0.65;;;11.30;99.90;;;;;;5009928;28;20505;-63
2023/01/07 09:18:25;;;;;;;0.30;0.30;;;11.40;99.90;;;;;;5008165;28;20057;-63
2023/01/07 09:20:51;;;;;;;0.17;0.17;;;11.30;99.90;;;;;;5009514;28;20034;-64
2023/01/07 09:23:17;;;;;;;1.15;0.50;;;11.40;99.90;;;;;;5009362;28;20034;-63
2023/01/07 09:25:42;;;;;;;1.42;0.30;;;11.40;99.90;;;;;;5006219;28;20030;-63
2023/01/07 09:28:08;;;;;;;0.20;0.20;;;11.30;99.90;;;;;;5010366;28;20097;-63
2023/01/07 09:30:34;;;;;;;0.22;0.20;;;11.40;99.90;;;;;;5008792;28;20038;-63
2023/01/07 09:32:59;;;;;;;0.30;0.28;;;11.50;99.90;;;;;;5009815;28;20026;-63
2023/01/07 09:35:26;;;;;;;3.53;0.45;;;11.50;99.90;;;;;;5010157;28;20033;-63
2023/01/07 09:37:52;;;;;;;0.57;0.45;;;11.50;99.90;;;;;;5011995;28;20141;-62
2023/01/07 09:40:34;;;;;;;0.68;0.68;;;11.60;99.90;;;;;;5012066;28;20120;-63
2023/01/07 09:43:15;;;;;;;2.25;2.05;;;11.60;99.90;;;;;;5001604;28;20129;-62
2023/01/07 09:45:49;;;;;;;0.45;0.45;;;11.70;99.90;;;;;;4999129;28;20030;-63
2023/01/07 09:48:32;;;;;;;1.17;0.55;;;11.60;99.90;;;;;;5004175;28;20033;-63
2023/01/07 09:51:04;;;;;;;0.32;0.32;;;11.70;99.90;;;;;;4996542;28;20069;-63
2023/01/07 09:53:42;;;;;;;0.32;0.32;;;11.80;99.90;;;;;;4996878;28;20122;-63
2023/01/07 09:56:20;;;;;;;1.70;0.43;;;11.80;99.90;;;;;;4996597;28;20081;-64
2023/01/07 09:58:47;;;;;;;0.82;0.10;;;11.80;99.90;;;;;;4995152;28;20134;-63
2023/01/07 10:01:40;;;;;;;1.20;0.70;;;11.80;99.90;;;;;;4996175;28;20039;-64
2023/01/07 10:04:40;;;;;;;4.90;0.60;;;11.80;99.90;;;;;;4990252;28;20030;-64
2023/01/07 10:07:21;;;;;;;0.40;0.20;;;11.80;99.90;;;;;;4996279;28;20061;-64
2023/01/07 10:09:53;;;;;;;0.60;0.38;;;11.80;99.90;;;;;;4996554;28;20032;-64
2023/01/07 10:12:27;;;;;;;1.00;0.52;;;11.90;99.90;;;;;;5010605;28;20034;-63
2023/01/07 10:15:12;;;;;;;9.75;0.30;;;12.10;99.90;;;;;;4992650;28;20109;-64
2023/01/07 10:17:50;;;;;;;0.22;0.22;;;12.00;99.90;;;;;;4986362;28;20035;-64
2023/01/07 10:20:33;;;;;;;0.57;0.50;;;12.10;99.90;;;;;;4989596;28;20056;-63
2023/01/07 10:23:07;;;;;;;0.38;0.38;;;12.20;99.90;;;;;;5006304;28;20056;-63
2023/01/07 10:25:40;;;;;;;0.82;0.60;;;12.20;99.90;;;;;;4995847;28;20030;-63
2023/01/07 10:28:12;;;;;;;1.00;0.50;;;12.30;99.90;;;;;;4995582;28;20042;-62
2023/01/07 10:30:43;;;;;;;0.65;0.40;;;12.30;99.90;;;;;;4995765;28;20092;-63
2023/01/07 10:33:18;;;;;;;0.88;0.60;;;12.50;99.90;;;;;;4998915;28;20038;-63
2023/01/07 10:35:53;;;;;;;1.77;0.93;;;12.50;99.90;;;;;;4997634;28;20078;-64
2023/01/07 10:38:19;;;;;;;1.13;0.43;;;12.60;99.90;;;;;;4995217;28;20391;-64
2023/01/07 10:40:52;;;;;;;0.98;0.65;;;12.70;99.90;;;;;;4995214;28;20038;-64
2023/01/07 10:43:35;;;;;;;0.10;0.10;;;12.70;99.90;;;;;;4995579;28;20467;-64
2023/01/07 10:46:14;;;;;;;0.38;0.35;;;12.60;99.90;;;;;;4994356;28;20034;-64
2023/01/07 10:48:40;;;;;;;1.23;0.60;;;12.50;99.90;;;;;;4987718;28;20038;-64
2023/01/07 10:51:30;;;;;;;0.80;0.40;;;12.50;99.90;;;;;;4995645;28;20030;-63
2023/01/07 10:54:08;;;;;;;0.20;0.20;;;12.50;99.90;;;;;;4987922;28;20037;-66
2023/01/07 10:56:39;;;;;;;1.08;0.80;;;12.30;99.90;;;;;;5004071;28;20451;-63
2023/01/07 10:59:12;;;;;;;0.52;0.52;;;12.20;99.90;;;;;;4995748;28;20042;-63
2023/01/07 11:01:43;;;;;;;0.45;0.45;;;12.30;99.90;;;;;;4995316;28;20109;-64
2023/01/07 11:04:14;;;;;;;0.50;0.22;;;12.20;99.90;;;;;;4994970;28;20066;-64
2023/01/07 11:07:03;;;;;;;0.20;0.20;;;12.10;99.90;;;;;;4995156;28;20036;-64
2023/01/07 11:09:44;;;;;;;0.20;0.20;;;12.00;99.90;;;;;;4995089;28;20137;-64
2023/01/07 11:12:35;;;;;;;1.20;0.43;;;12.00;99.90;;;;;;4995464;28;20161;-68
2023/01/07 11:15:06;;;;;;;0.57;0.52;;;11.90;99.90;;;;;;4994039;28;20030;-67
2023/01/07 11:17:44;;;;;;;0.77;0.65;;;11.80;99.90;;;;;;4986936;28;20032;-65
2023/01/07 11:20:11;;;;;;;0.30;0.28;;;11.90;99.90;;;;;;4995026;28;20450;-64
2023/01/07 11:22:38;;;;;;;0.10;0.10;;;11.90;99.90;;;;;;4995036;28;20037;-65
2023/01/07 11:25:27;;;;;;;0.63;0.30;;;11.90;99.90;;;;;;4995132;28;20039;-65
2023/01/07 11:27:55;;;;;;;0.47;0.43;;;12.00;99.90;;;;;;4995097;28;20085;-65
2023/01/07 11:30:25;;;;;;;1.92;1.20;;;12.00;99.90;;;;;;4994602;28;20046;-65
2023/01/07 11:33:05;;;;;;;1.52;0.55;;;11.90;99.90;;;;;;4994853;28;20065;-65
2023/01/07 11:35:31;;;;;;;0.47;0.40;;;12.10;99.90;;;;;;4995324;28;20547;-65
2023/01/07 11:37:58;;;;;;;0.90;0.63;;;12.30;99.90;;;;;;4995186;28;20430;-65
2023/01/07 11:40:28;;;;;;;0.10;0.10;;;12.30;99.90;;;;;;4994664;28;20099;-64
2023/01/07 11:43:15;;;;;;;1.27;1.15;;;12.50;99.90;;;;;;4994479;28;20125;-64
2023/01/07 11:45:49;;;;;;;1.45;0.50;;;12.70;99.90;;;;;;4993482;28;20030;-63
2023/01/07 11:48:30;;;;;;;0.10;0.10;;;12.50;99.90;;;;;;4994915;28;20510;-63
2023/01/07 11:50:57;;;;;;;0.45;0.43;;;12.60;99.90;;;;;;4994466;28;20042;-63
2023/01/07 11:53:36;;;;;;;1.70;0.60;;;12.80;99.90;;;;;;4993191;28;20031;-63
2023/01/07 11:56:11;;;;;;;0.57;0.45;;;12.90;99.90;;;;;;4994438;28;20134;-63
2023/01/07 11:58:39;;;;;;;1.38;0.70;;;13.00;99.90;;;;;;4993689;28;20372;-65
2023/01/07 12:01:11;;;;;;;0.93;0.82;;;12.90;99.90;;;;;;4994127;28;20141;-63
2023/01/07 12:03:59;;;;;;;0.82;0.60;;;12.90;99.90;;;;;;4994355;28;20046;-64
2023/01/07 12:06:37;;;;;;;2.00;0.85;;;12.70;99.90;;;;;;4993576;28;20045;-63
2023/01/07 12:09:23;;;;;;;0.30;0.30;;;12.60;99.90;;;;;;4994452;28;20100;-63
2023/01/07 12:11:50;;;;;;;0.45;0.45;;;12.60;99.90;;;;;;4994438;28;20064;-63
2023/01/07 12:14:16;;;;;;;0.52;0.52;;;12.60;99.90;;;;;;4994326;28;20035;-63
2023/01/07 12:16:44;;;;;;;17.92;1.20;;;12.70;99.90;;;;;;4993742;28;20145;-64
2023/01/07 12:19:21;;;;;;;0.50;0.50;;;12.90;99.90;;;;;;4994103;28;20034;-64
2023/01/07 12:22:10;;;;;;;1.50;0.57;;;13.10;99.90;;;;;;4993472;28;20034;-63
2023/01/07 12:24:44;;;;;;;1.20;0.88;;;13.40;99.90;;;;;;4993990;28;20030;-64
2023/01/07 12:27:10;;;;;;;0.38;0.38;;;13.30;99.90;;;;;;4992393;28;20076;-63
2023/01/07 12:30:00;;;;;;;0.60;0.60;;;13.20;99.90;;;;;;4993553;28;20402;-63
2023/01/07 12:32:29;;;;;;;1.23;1.17;;;13.30;99.90;;;;;;4992463;28;20463;-63
2023/01/07 12:35:01;;;;;;;1.38;0.65;;;13.40;99.90;;;;;;4991844;28;20061;-64
2023/01/07 12:37:36;;;;;;;;;;;13.40;99.90;;;;;;5002619;28;20450;-70
2023/01/07 12:40:08;;;;;;;0.57;0.57;;;13.70;99.90;;;;;;5003738;28;19916;-64
2023/01/07 12:42:41;;;;;;;2.75;1.08;;;13.90;99.90;;;;;;4995461;28;20022;-64
2023/01/07 12:45:21;;;;;;;0.20;0.20;;;13.80;99.90;;;;;;4993151;28;20042;-64
2023/01/07 12:47:53;;;;;;;8.50;0.40;;;14.10;99.90;;;;;;4993364;28;20027;-64
2023/01/07 12:50:41;;;;;;;1.42;0.95;;;14.20;99.90;;;;;;4993465;28;20446;-64
2023/01/07 12:53:29;;;;;;;1.05;0.40;;;14.40;99.90;;;;;;4995296;28;20113;-64
2023/01/07 12:56:10;;;;;;;0.40;0.40;;;14.10;99.90;;;;;;5010841;28;20025;-64
2023/01/07 12:58:44;;;;;;;0.17;0.17;;;13.70;99.90;;;;;;5002935;28;20044;-64
2023/01/07 13:01:42;;;;;;;0.25;0.25;;;13.70;99.90;;;;;;4993269;28;20098;-67
2023/01/07 13:04:38;;;;;;;0.15;0.15;;;13.50;99.90;;;;;;4970874;28;20054;-65
2023/01/07 13:07:09;;;;;;;2.17;0.63;;;13.20;99.90;;;;;;4982952;28;20037;-64
2023/01/07 13:09:57;;;;;;;0.20;0.17;;;13.20;99.90;;;;;;4991836;28;20069;-64
2023/01/07 13:12:43;;;;;;;1.00;0.80;;;13.10;99.90;;;;;;4992223;28;20033;-64